Delta, CO

11:43 PM MDT on August 19, 2014 (GMT -0600)
Garnet Mesa | Change Station
CLOSE
Current Station
Personal Weather Station
Location: Delta, CO
Elevation: 5046 ft
Nearby Weather Stations
Active Advisory: Special Statement Active Notice: Public Information Statement

Elev 5046 ft 38.75 °N, 108.04 °W | Updated 1 second ago

Rain
Rain
61.3 °F
Feels Like 61.3 °F
N
2.0
Wind Variable Wind from East
Gusts 3.0 mph

Today
High -- | Low -- °F
--% Chance of Precip.
Yesterday
High -- | Low -- °F
Precip. -- in
6:29 AM 8:01 PM
Waning Crescent, 24% visible
Pressure 30.01 in
Visibility 10.0 miles
Clouds Mostly Cloudy 11000 ft
Dew Point 59 °F
Humidity 92%
Rainfall 0.05 in
Snow Depth Not available.
UV 0 out of 12
Pollen 7.40 out of 12
Air Quality Not available.
Flu Activity Not available.
METAR KAJZ 200535Z AUTO 10004KT 10SM RA BKN110 19/15 A3001 RMK AO2 T01880152

More Conditions Fewer Conditions

Pressure 30.01 in
Visibility 10.0 miles
Clouds Mostly Cloudy 11000 ft
Dew Point 59 °F
Humidity 92%
Rainfall 0.05 in
Snow Depth Not available.
UV 0 out of 12
Pollen 7.40 out of 12
Air Quality Not available.
Flu Activity Not available.
METAR KAJZ 200535Z AUTO 10004KT 10SM RA BKN110 19/15 A3001 RMK AO2 T01880152

More Conditions Fewer Conditions

10-Day Weather Forecast

Almanac

Astronomy

Aug. 19, 2014 Rise Set
Actual Time 6:29 AM MDT 8:01 PM MDT
Civil Twilight 6:01 AM MDT 8:29 PM MDT
Nautical Twilight 5:27 AM MDT 9:02 PM MDT
Astronomical Twilight 4:52 AM MDT 9:38 PM MDT
Moon 1:25 AM MDT (8/19) 3:59 PM MDT (8/19)
Length of Visible Light 14h 27m
Length of Day
13h 31m
Tomorrow will be 2m 16s shorter.
Waning Crescent, 24% of the Moon is Illuminated
Aug 20
Waning Crescent
Aug 25
New
Sep 2
First Quarter
Sep 8
Full
Sep 15
Last Quarter

Yesterday's Extremes

State Highs State Lows

Community

WunderPhotos

Upload Photos

1,745,592 photos uploaded!

Nearby

Snow Depth

Station Depth Elevation
Mesa Lakes 0 in 10000 ft
Park Reservoir 0 in 9960 ft
Columbine Pass 0 in 9400 ft
Overland Reservoir 0 in 9880 ft
McClure Pass 2 in 9500 ft

Earthquake Activity

City Distance Mag. Time & Date
No recent earthquake activity has been reported nearby.
Minimum magnitude displayed is 2.5.

Coastal Water Temperatures

Place Temperature
No Stations Reporting

Nearby Weather Stations